Time;durP1;ratioP1;P1;durP2;ratioP2;P2;SDS_P1;SDS_P2;PMS_P1;PMS_P2;Temp;Humidity;BMP_temperature;BMP_pressure;BME280_temperature;BME280_humidity;BME280_pressure;Samples;Min_cycle;Max_cycle;Signal;HPM_P1;HPM_P2
2021/01/13 00:01:07;;;;;;;8.43;1.42;;;;;;;0.28;100.00;97100.47;5010848;28;20046;-76
2021/01/13 00:03:37;;;;;;;8.73;1.67;;;;;;;0.24;100.00;97100.19;5010196;28;20088;-77
2021/01/13 00:06:03;;;;;;;14.60;1.55;;;;;;;0.30;100.00;97119.66;4993346;28;20046;-77
2021/01/13 00:08:29;;;;;;;13.77;1.88;;;;;;;0.32;100.00;97120.19;4988892;28;20378;-77
2021/01/13 00:10:56;;;;;;;9.07;1.50;;;;;;;0.30;100.00;97120.44;5009666;28;20053;-76
2021/01/13 00:13:22;;;;;;;10.55;1.50;;;;;;;0.35;100.00;97135.63;5026032;28;20046;-77
2021/01/13 00:15:48;;;;;;;7.40;1.50;;;;;;;0.32;100.00;97133.47;5011049;28;20038;-77
2021/01/13 00:18:14;;;;;;;9.18;1.63;;;;;;;0.28;100.00;97124.44;5012582;28;20052;-76
2021/01/13 00:20:42;;;;;;;5.25;1.50;;;;;;;0.31;100.00;97140.66;4994575;28;20049;-76
2021/01/13 00:23:09;;;;;;;15.48;1.90;;;;;;;0.31;100.00;97134.56;5009719;28;20489;-76
2021/01/13 00:25:35;;;;;;;15.18;2.03;;;;;;;0.28;100.00;97130.56;5010970;28;20050;-77
2021/01/13 00:28:01;;;;;;;10.32;2.00;;;;;;;0.25;100.00;97131.09;5012234;28;20071;-76
2021/01/13 00:30:27;;;;;;;10.05;1.98;;;;;;;0.26;100.00;97139.88;4994234;28;20050;-76
2021/01/13 00:32:54;;;;;;;14.55;1.90;;;;;;;0.21;100.00;97142.50;4993443;28;20042;-76
2021/01/13 00:35:21;;;;;;;11.77;1.80;;;;;;;0.22;100.00;97149.41;5010020;28;20120;-76
2021/01/13 00:37:47;;;;;;;14.85;1.83;;;;;;;0.22;100.00;97144.09;5009999;28;20042;-76
2021/01/13 00:40:14;;;;;;;10.65;2.10;;;;;;;0.21;100.00;97139.81;5009901;28;20037;-77
2021/01/13 00:42:46;;;;;;;17.80;1.83;;;;;;;0.15;100.00;97131.06;5009495;28;20763;-76
2021/01/13 00:45:14;;;;;;;7.22;1.50;;;;;;;0.25;100.00;97146.25;5009801;28;20049;-76
2021/01/13 00:47:41;;;;;;;13.23;1.70;;;;;;;0.24;100.00;97155.28;5009615;28;20053;-75
2021/01/13 00:50:12;;;;;;;10.88;1.77;;;;;;;0.25;100.00;97160.34;5009975;28;20094;-75
2021/01/13 00:52:38;;;;;;;13.73;1.85;;;;;;;0.29;100.00;97166.75;5010058;28;20038;-76
2021/01/13 00:55:05;;;;;;;16.45;2.08;;;;;;;0.29;100.00;97160.63;5009538;28;20046;-76
2021/01/13 00:57:31;;;;;;;13.75;2.47;;;;;;;0.29;100.00;97156.09;5010080;28;20420;-76
2021/01/13 00:59:58;;;;;;;11.00;1.77;;;;;;;0.30;100.00;97160.38;4992097;28;20044;-76
2021/01/13 01:02:24;;;;;;;17.15;2.10;;;;;;;0.31;100.00;97177.16;4991990;28;20038;-76
2021/01/13 01:04:51;;;;;;;14.43;2.00;;;;;;;0.28;100.00;97170.50;5009280;28;20124;-76
2021/01/13 01:07:17;;;;;;;9.25;1.48;;;;;;;0.30;100.00;97167.56;4992130;28;20046;-75
2021/01/13 01:09:44;;;;;;;17.25;1.98;;;;;;;0.26;100.00;97169.16;5009139;28;20058;-76
2021/01/13 01:12:10;;;;;;;21.23;2.13;;;;;;;0.28;100.00;97159.03;5009790;28;20450;-76
2021/01/13 01:14:37;;;;;;;8.48;1.75;;;;;;;0.29;100.00;97174.72;5009395;28;20053;-77
2021/01/13 01:17:09;;;;;;;9.02;1.35;;;;;;;0.26;100.00;97169.94;5008705;28;20048;-76
2021/01/13 01:19:37;;;;;;;8.77;1.58;;;;;;;0.28;100.00;97180.34;5009542;28;20049;-75
2021/01/13 01:22:06;;;;;;;9.35;1.70;;;;;;;0.26;100.00;97175.25;5009338;28;20042;-77
2021/01/13 01:24:32;;;;;;;17.38;2.35;;;;;;;0.29;100.00;97187.25;5009371;28;20049;-75
2021/01/13 01:26:59;;;;;;;16.50;1.77;;;;;;;0.32;100.00;97179.53;5010184;28;20060;-77
2021/01/13 01:29:25;;;;;;;14.18;2.30;;;;;;;0.28;100.00;97178.47;5010149;28;20049;-76
2021/01/13 01:31:52;;;;;;;17.85;1.88;;;;;;;0.30;100.00;97175.53;5009476;28;20037;-76
2021/01/13 01:34:19;;;;;;;14.27;2.30;;;;;;;0.31;100.00;97171.81;5009601;28;20042;-77
2021/01/13 01:36:46;;;;;;;14.70;1.67;;;;;;;0.34;100.00;97179.28;4991237;28;20081;-75
2021/01/13 01:39:12;;;;;;;20.65;2.83;;;;;;;0.30;100.00;97187.00;5009255;28;20424;-76
2021/01/13 01:41:43;;;;;;;12.07;1.85;;;;;;;0.29;100.00;97182.72;4991122;28;20056;-75
2021/01/13 01:44:09;;;;;;;9.15;1.92;;;;;;;0.27;100.00;97194.69;5008581;28;20053;-78
2021/01/13 01:46:39;;;;;;;16.45;2.17;;;;;;;0.25;100.00;97186.16;5008899;28;20212;-76
2021/01/13 01:49:06;;;;;;;13.18;1.85;;;;;;;0.25;100.00;97188.81;5009165;28;20042;-77
2021/01/13 01:51:33;;;;;;;17.85;2.13;;;;;;;0.30;100.00;97210.94;4991588;28;20038;-77
2021/01/13 01:54:06;;;;;;;17.60;2.70;;;;;;;0.30;100.00;97187.00;5008899;28;20057;-76
2021/01/13 01:56:37;;;;;;;10.18;1.70;;;;;;;0.34;100.00;97195.25;5007839;28;20508;-76
2021/01/13 01:59:06;;;;;;;13.30;2.00;;;;;;;0.34;100.00;97201.38;5013098;28;20045;-77
2021/01/13 02:01:39;;;;;;;12.02;1.92;;;;;;;0.34;100.00;97187.25;5012780;28;20512;-77
2021/01/13 02:04:15;;;;;;;16.88;2.08;;;;;;;0.25;100.00;97200.28;4995908;28;20064;-76
2021/01/13 02:06:57;;;;;;;13.73;2.17;;;;;;;0.29;100.00;97201.34;5012701;28;20408;-76
2021/01/13 02:09:30;;;;;;;8.50;2.05;;;;;;;0.20;100.00;97192.28;5012674;28;20042;-77
2021/01/13 02:11:58;;;;;;;12.10;1.77;;;;;;;0.20;100.00;97202.91;5012423;28;20382;-76
2021/01/13 02:14:26;;;;;;;9.63;2.03;;;;;;;0.16;100.00;97199.16;5010901;28;20049;-76
2021/01/13 02:16:57;;;;;;;10.15;1.88;;;;;;;0.03;100.00;97191.63;4994630;28;20073;-76
2021/01/13 02:19:32;;;;;;;12.23;2.05;;;;;;;0.10;100.00;97202.06;4991899;28;20078;-77
2021/01/13 02:22:03;;;;;;;16.73;2.55;;;;;;;0.03;100.00;97204.94;4993315;28;20156;-77
2021/01/13 02:25:07;;;;;;;19.63;2.25;;;;;;;-0.05;100.00;97200.91;4995869;28;20092;-77
2021/01/13 02:28:03;;;;;;;12.40;2.05;;;;;;;-0.03;100.00;97192.69;5013004;28;20046;-77
2021/01/13 02:31:01;;;;;;;15.75;1.90;;;;;;;-0.06;100.00;97198.53;5012572;28;20045;-77
2021/01/13 02:33:32;;;;;;;13.45;2.20;;;;;;;-0.11;100.00;97204.63;5001555;28;20058;-77
2021/01/13 02:35:59;;;;;;;13.32;2.08;;;;;;;-0.05;100.00;97205.44;5012449;28;20053;-77
2021/01/13 02:38:31;;;;;;;19.50;2.58;;;;;;;-0.05;100.00;97195.59;5012452;28;20129;-76
2021/01/13 02:40:58;;;;;;;14.70;2.47;;;;;;;-0.02;100.00;97207.59;5012399;28;20049;-76
2021/01/13 02:43:27;;;;;;;21.00;2.15;;;;;;;0.02;100.00;97210.53;5011835;28;20489;-76
2021/01/13 02:45:58;;;;;;;7.18;1.60;;;;;;;0.05;100.00;97220.66;5012125;28;20049;-76
2021/01/13 02:48:27;;;;;;;11.63;2.40;;;;;;;0.05;100.00;97212.69;5011867;28;20046;-76
2021/01/13 02:50:59;;;;;;;12.68;1.73;;;;;;;0.06;100.00;97212.41;5011991;28;20041;-77
2021/01/13 02:53:47;;;;;;;12.35;1.98;;;;;;;0.11;100.00;97214.28;5011546;28;20077;-76
2021/01/13 02:56:28;;;;;;;13.90;2.33;;;;;;;0.09;100.00;97225.22;5013980;28;20042;-77
2021/01/13 02:59:04;;;;;;;18.02;2.38;;;;;;;0.07;100.00;97226.53;5013024;28;20049;-76
2021/01/13 03:01:30;;;;;;;14.50;2.08;;;;;;;0.06;100.00;97239.03;5012423;28;20046;-77
2021/01/13 03:03:57;;;;;;;14.27;1.88;;;;;;;0.08;100.00;97244.88;5011862;28;20078;-77
2021/01/13 03:06:28;;;;;;;12.65;1.70;;;;;;;0.05;100.00;97229.47;5012210;28;20669;-77
2021/01/13 03:09:09;;;;;;;13.38;1.52;;;;;;;0.06;100.00;97239.03;5010751;28;20049;-77
2021/01/13 03:11:36;;;;;;;14.50;2.22;;;;;;;0.06;100.00;97244.34;5012108;28;20075;-77
2021/01/13 03:14:18;;;;;;;11.50;1.90;;;;;;;0.03;100.00;97236.88;5011706;28;20045;-76
2021/01/13 03:17:02;;;;;;;11.43;2.08;;;;;;;-0.03;100.00;97233.38;5014136;28;20053;-76
2021/01/13 03:19:42;;;;;;;16.33;1.92;;;;;;;-0.02;100.00;97236.84;5021041;28;20512;-77
2021/01/13 03:22:17;;;;;;;17.00;2.17;;;;;;;-0.08;100.00;97241.31;5015074;28;20490;-76
2021/01/13 03:24:54;;;;;;;13.38;1.98;;;;;;;-0.09;100.00;97252.22;5012688;28;20042;-76
2021/01/13 03:27:23;;;;;;;17.95;1.92;;;;;;;-0.10;100.00;97250.63;4995239;28;20045;-78
2021/01/13 03:29:53;;;;;;;17.80;2.78;;;;;;;-0.14;100.00;97255.66;5011738;28;20045;-76
2021/01/13 03:32:29;;;;;;;21.98;2.53;;;;;;;-0.26;100.00;97241.72;5012318;28;20042;-77
2021/01/13 03:35:08;;;;;;;20.27;2.05;;;;;;;-0.23;100.00;97254.53;5011357;28;20477;-76
2021/01/13 03:37:57;;;;;;;17.58;1.83;;;;;;;-0.20;100.00;97263.84;4994604;28;20049;-77
2021/01/13 03:40:27;;;;;;;14.35;2.55;;;;;;;-0.19;100.00;97262.81;5013584;28;20056;-77
2021/01/13 03:42:56;;;;;;;14.75;1.90;;;;;;;-0.14;100.00;97257.53;5013387;28;20408;-77
2021/01/13 03:45:35;;;;;;;12.00;1.73;;;;;;;-0.21;100.00;97249.78;5027793;28;20144;-77
2021/01/13 03:48:05;;;;;;;13.20;1.80;;;;;;;-0.19;100.00;97263.63;5031084;28;20049;-76
2021/01/13 03:50:42;;;;;;;18.65;1.60;;;;;;;-0.11;100.00;97265.00;5031815;28;20500;-76
2021/01/13 03:53:13;;;;;;;19.75;2.75;;;;;;;-0.09;100.00;97252.22;5031808;28;20037;-77
2021/01/13 03:55:41;;;;;;;16.80;2.83;;;;;;;-0.05;100.00;97250.66;5030322;28;20045;-77
2021/01/13 03:58:07;;;;;;;16.45;2.15;;;;;;;-0.01;100.00;97260.53;5031166;28;20042;-77
2021/01/13 04:01:24;;;;;;;14.32;2.13;;;;;;;0.08;100.00;97252.88;5030523;28;20065;-77
2021/01/13 04:03:51;;;;;;;15.88;2.22;;;;;;;0.06;100.00;97249.66;4949379;29;20055;-77
2021/01/13 04:06:20;;;;;;;12.63;1.92;;;;;;;0.05;100.00;97250.75;4951423;29;20055;-77
2021/01/13 04:08:48;;;;;;;14.65;2.20;;;;;;;0.10;100.00;97258.75;4982068;28;20050;-76
2021/01/13 04:11:17;;;;;;;19.35;2.10;;;;;;;0.12;100.00;97261.16;5030423;28;20060;-76
2021/01/13 04:13:45;;;;;;;15.65;1.80;;;;;;;0.13;100.00;97257.44;5029107;28;20083;-77
2021/01/13 04:16:14;;;;;;;18.17;2.00;;;;;;;0.16;100.00;97259.56;5031216;28;20049;-77
2021/01/13 04:18:42;;;;;;;15.60;1.75;;;;;;;0.20;100.00;97252.69;5031917;28;20055;-75
2021/01/13 04:21:12;;;;;;;21.42;1.52;;;;;;;0.18;100.00;97252.91;5013722;28;20376;-77
2021/01/13 04:23:39;;;;;;;15.07;2.58;;;;;;;0.20;100.00;97245.50;5031059;28;20140;-77
2021/01/13 04:26:05;;;;;;;13.93;2.22;;;;;;;0.22;100.00;97253.22;5037110;28;20046;-77
2021/01/13 04:28:32;;;;;;;15.80;2.13;;;;;;;0.21;100.00;97248.94;5037589;28;20050;-77
2021/01/13 04:30:59;;;;;;;17.73;2.05;;;;;;;0.25;100.00;97250.84;5037660;28;20044;-75
2021/01/13 04:33:26;;;;;;;12.43;1.83;;;;;;;0.25;100.00;97263.34;5037913;28;20114;-77
2021/01/13 04:35:54;;;;;;;17.58;2.10;;;;;;;0.30;100.00;97266.03;5038487;28;20050;-76
2021/01/13 04:38:27;;;;;;;18.20;2.03;;;;;;;0.29;100.00;97261.75;5037604;28;20065;-77
2021/01/13 04:41:10;;;;;;;10.38;1.95;;;;;;;0.23;100.00;97239.66;5036053;28;20037;-77
2021/01/13 04:43:54;;;;;;;21.42;1.92;;;;;;;0.28;100.00;97258.31;5032747;28;20052;-78
2021/01/13 04:46:37;;;;;;;22.48;1.73;;;;;;;0.28;100.00;97266.31;5033946;28;20045;-77
2021/01/13 04:49:04;;;;;;;17.20;1.75;;;;;;;0.28;100.00;97255.66;5030040;28;20041;-76
2021/01/13 04:51:33;;;;;;;15.18;1.90;;;;;;;0.31;100.00;97262.34;5029762;28;20485;-76
2021/01/13 04:54:10;;;;;;;14.63;3.28;;;;;;;0.30;100.00;97256.19;5029822;28;20049;-77
2021/01/13 04:56:58;;;;;;;11.93;1.88;;;;;;;0.32;100.00;97266.56;5031526;28;20057;-76
2021/01/13 04:59:31;;;;;;;15.25;2.28;;;;;;;0.32;100.00;97255.94;5007389;28;20519;-77
2021/01/13 05:02:07;;;;;;;16.35;2.20;;;;;;;0.33;100.00;97247.69;5033025;28;20037;-77
2021/01/13 05:04:56;;;;;;;14.05;2.22;;;;;;;0.33;100.00;97263.69;5032202;28;20072;-77
2021/01/13 05:07:30;;;;;;;14.90;2.22;;;;;;;0.29;100.00;97248.47;5031529;28;20045;-78
2021/01/13 05:10:01;;;;;;;19.27;2.28;;;;;;;0.23;100.00;97252.16;5013294;28;20060;-78
2021/01/13 05:12:51;;;;;;;10.48;1.88;;;;;;;0.22;100.00;97255.88;5028862;28;20394;-79
2021/01/13 05:15:32;;;;;;;20.35;1.95;;;;;;;0.21;100.00;97271.03;5017357;28;20049;-77
2021/01/13 05:18:07;;;;;;;10.57;1.77;;;;;;;0.18;100.00;97262.78;5013601;28;20472;-77
2021/01/13 05:20:40;;;;;;;;;;;;;;;0.16;100.00;97265.69;4993384;28;20038;-77
2021/01/13 05:23:11;;;;;;;11.95;1.75;;;;;;;0.12;100.00;97250.50;5008571;28;19928;-78
2021/01/13 05:25:49;;;;;;;15.32;1.70;;;;;;;0.18;100.00;97258.25;5012562;28;20037;-77
2021/01/13 05:28:23;;;;;;;19.83;1.80;;;;;;;0.21;100.00;97262.25;5012512;28;20125;-78
2021/01/13 05:30:59;;;;;;;14.65;1.88;;;;;;;0.24;100.00;97262.53;5014632;28;20732;-78
2021/01/13 05:33:30;;;;;;;9.90;1.60;;;;;;;0.24;100.00;97251.09;5012318;28;20097;-78
2021/01/13 05:36:01;;;;;;;25.83;2.28;;;;;;;0.23;100.00;97247.66;5013715;28;20077;-78
2021/01/13 05:38:59;;;;;;;10.30;2.05;;;;;;;0.28;100.00;97246.88;5012468;28;20509;-78
2021/01/13 05:41:27;;;;;;;15.65;1.83;;;;;;;0.25;100.00;97250.03;5013295;28;20042;-78
2021/01/13 05:43:53;;;;;;;13.60;2.10;;;;;;;0.27;100.00;97247.91;5015756;28;20125;-77
2021/01/13 05:46:20;;;;;;;10.15;1.80;;;;;;;0.28;100.00;97257.53;5042866;23;20049;-77
2021/01/13 05:48:49;;;;;;;12.27;2.03;;;;;;;0.34;100.00;97261.78;4997781;28;20420;-76
2021/01/13 05:51:27;;;;;;;10.85;1.83;;;;;;;0.33;100.00;97252.22;5034668;28;20042;-76
2021/01/13 05:53:53;;;;;;;21.92;1.80;;;;;;;0.34;100.00;97265.25;5015943;28;20457;-77
2021/01/13 05:56:20;;;;;;;12.73;2.20;;;;;;;0.39;100.00;97267.13;5029274;28;20053;-77
2021/01/13 05:58:47;;;;;;;23.10;2.30;;;;;;;0.41;100.00;97270.38;5012766;28;20416;-77
2021/01/13 06:01:41;;;;;;;13.23;1.52;;;;;;;0.41;100.00;97265.03;4961151;28;20056;-76
2021/01/13 06:04:11;;;;;;;11.38;2.05;;;;;;;0.36;100.00;97260.47;5020991;28;20501;-78
2021/01/13 06:06:57;;;;;;;15.02;1.83;;;;;;;0.37;100.00;97266.59;5031715;28;20045;-77
2021/01/13 06:09:24;;;;;;;21.90;2.08;;;;;;;0.39;100.00;97262.63;5029195;28;20068;-78
2021/01/13 06:11:53;;;;;;;12.13;2.05;;;;;;;0.36;100.00;97263.13;5029299;28;20068;-77
2021/01/13 06:14:27;;;;;;;16.73;1.60;;;;;;;0.40;100.00;97263.44;5030410;28;20046;-77
2021/01/13 06:16:54;;;;;;;14.02;1.50;;;;;;;0.41;100.00;97262.38;5031145;28;20099;-77
2021/01/13 06:19:22;;;;;;;14.13;2.00;;;;;;;0.34;100.00;97259.94;5033308;28;20049;-78
2021/01/13 06:22:07;;;;;;;12.70;1.70;;;;;;;0.34;100.00;97267.91;5011580;28;20053;-77
2021/01/13 06:24:34;;;;;;;26.77;1.92;;;;;;;0.33;100.00;97261.00;5031855;28;20053;-77
2021/01/13 06:27:18;;;;;;;15.60;1.80;;;;;;;0.39;100.00;97267.13;5013539;28;21487;-78
2021/01/13 06:29:47;;;;;;;16.10;1.80;;;;;;;0.41;100.00;97281.00;5034336;28;20050;-78
2021/01/13 06:32:30;;;;;;;21.58;2.88;;;;;;;0.38;100.00;97271.69;5032368;28;20045;-78
2021/01/13 06:35:04;;;;;;;18.65;2.28;;;;;;;0.35;100.00;97260.75;5013520;28;20045;-77
2021/01/13 06:37:36;;;;;;;13.18;1.75;;;;;;;0.25;100.00;97258.03;5030288;28;20200;-77
2021/01/13 06:40:12;;;;;;;20.92;2.00;;;;;;;0.35;100.00;97272.19;5030008;28;20124;-77
2021/01/13 06:42:38;;;;;;;13.32;2.30;;;;;;;0.33;100.00;97273.50;5029574;28;20091;-78
2021/01/13 06:45:06;;;;;;;17.75;2.03;;;;;;;0.36;100.00;97271.13;5031139;28;20316;-77
2021/01/13 06:47:33;;;;;;;15.13;1.77;;;;;;;0.37;100.00;97261.28;5053828;28;20037;-77
2021/01/13 06:50:00;;;;;;;18.58;1.65;;;;;;;0.39;100.00;97261.81;5054647;28;20123;-78
2021/01/13 06:52:33;;;;;;;19.80;2.47;;;;;;;0.32;100.00;97250.59;5034771;28;20098;-77
2021/01/13 06:55:01;;;;;;;11.40;1.50;;;;;;;0.38;100.00;97268.22;5032788;28;20046;-78
2021/01/13 06:57:28;;;;;;;19.75;2.03;;;;;;;0.41;100.00;97262.38;5014803;28;20095;-77
2021/01/13 06:59:55;;;;;;;17.10;1.77;;;;;;;0.40;100.00;97272.22;5039645;28;20041;-77
2021/01/13 07:02:35;;;;;;;13.85;2.08;;;;;;;0.37;100.00;97261.28;5024460;28;20052;-76
2021/01/13 07:05:03;;;;;;;16.42;1.90;;;;;;;0.43;100.00;97270.91;5041527;28;20060;-78
2021/01/13 07:07:30;;;;;;;15.43;2.15;;;;;;;0.41;100.00;97263.16;5039657;28;20041;-76
2021/01/13 07:09:57;;;;;;;9.77;1.48;;;;;;;0.47;100.00;97266.66;5060802;28;20508;-76
2021/01/13 07:12:28;;;;;;;12.05;1.70;;;;;;;0.46;100.00;97257.06;5060474;28;20077;-77
2021/01/13 07:14:56;;;;;;;13.63;2.00;;;;;;;0.48;100.00;97268.25;5036182;28;20060;-77
2021/01/13 07:17:28;;;;;;;12.93;2.65;;;;;;;0.46;100.00;97262.41;5054721;28;20049;-78
2021/01/13 07:19:56;;;;;;;19.30;2.08;;;;;;;0.44;100.00;97273.28;5035086;28;20044;-78
2021/01/13 07:22:27;;;;;;;12.70;1.60;;;;;;;0.44;100.00;97262.66;5051936;28;20350;-77
2021/01/13 07:24:54;;;;;;;8.57;1.90;;;;;;;0.43;100.00;97266.38;5029598;28;20072;-77
2021/01/13 07:27:22;;;;;;;10.18;1.40;;;;;;;0.44;100.00;97272.50;5031024;28;20441;-76
2021/01/13 07:29:49;;;;;;;10.40;1.85;;;;;;;0.44;100.00;97272.50;5032574;28;20405;-79
2021/01/13 07:32:20;;;;;;;10.57;1.83;;;;;;;0.43;100.00;97273.56;5013882;28;20045;-77
2021/01/13 07:34:54;;;;;;;10.95;2.47;;;;;;;0.44;100.00;97273.28;5014567;28;20128;-77
2021/01/13 07:37:22;;;;;;;8.63;1.50;;;;;;;0.45;100.00;97276.75;5032238;28;20626;-77
2021/01/13 07:40:22;;;;;;;10.13;1.85;;;;;;;0.50;100.00;97274.13;5031887;28;20523;-77
2021/01/13 07:42:48;;;;;;;13.60;2.17;;;;;;;0.52;100.00;97272.00;5012519;28;20056;-76
2021/01/13 07:45:16;;;;;;;12.27;1.42;;;;;;;0.56;100.00;97262.44;4997391;28;20080;-77
2021/01/13 07:48:06;;;;;;;15.68;1.75;;;;;;;0.65;100.00;97265.41;5031244;28;20053;-77
2021/01/13 07:50:36;;;;;;;15.02;1.80;;;;;;;0.61;100.00;97271.25;5017542;28;20416;-76
2021/01/13 07:53:08;;;;;;;10.77;1.52;;;;;;;0.64;100.00;97269.94;5013722;28;20038;-77
2021/01/13 07:55:41;;;;;;;11.00;1.88;;;;;;;0.64;100.00;97261.94;5030675;28;20121;-77
2021/01/13 07:58:20;;;;;;;11.13;1.92;;;;;;;0.66;100.00;97269.66;5012718;28;20081;-77
2021/01/13 08:01:26;;;;;;;17.80;2.10;;;;;;;0.68;100.00;97256.88;5012642;28;20554;-76
2021/01/13 08:04:26;;;;;;;25.25;2.80;;;;;;;0.74;100.00;97269.97;5030373;28;20042;-79
2021/01/13 08:07:16;;;;;;;11.90;1.45;;;;;;;0.71;100.00;97262.50;5025129;28;20073;-76
2021/01/13 08:09:50;;;;;;;14.48;1.52;;;;;;;0.68;100.00;97263.03;5006605;28;20041;-78
2021/01/13 08:12:51;;;;;;;13.13;1.60;;;;;;;0.67;100.00;97265.94;5040839;28;20697;-78
2021/01/13 08:16:08;;;;;;;13.80;2.35;;;;;;;0.67;100.00;97255.31;5029025;28;20052;-77
2021/01/13 08:19:15;;;;;;;15.50;1.90;;;;;;;0.67;100.00;97258.78;5036969;28;20037;-78
2021/01/13 08:21:58;;;;;;;23.38;2.67;;;;;;;0.66;100.00;97251.84;5040544;28;20045;-77
2021/01/13 08:24:27;;;;;;;14.02;1.90;;;;;;;0.70;100.00;97255.56;5009700;28;20041;-78
2021/01/13 08:27:00;;;;;;;13.45;2.10;;;;;;;0.78;100.00;97259.56;5041215;28;20037;-78
2021/01/13 08:29:35;;;;;;;16.42;1.77;;;;;;;0.88;100.00;97241.78;5041124;28;20478;-77
2021/01/13 08:32:08;;;;;;;;;;;;;;;0.93;100.00;97257.00;5041830;28;20045;-79
2021/01/13 08:34:39;;;;;;;27.30;2.08;;;;;;;0.92;100.00;97253.53;5041748;28;19924;-78
2021/01/13 08:37:13;;;;;;;17.08;2.15;;;;;;;0.77;100.00;97245.47;5042117;28;20045;-78
2021/01/13 08:39:44;;;;;;;12.75;1.85;;;;;;;0.76;100.00;97264.38;5035648;28;20099;-77
2021/01/13 08:42:21;;;;;;;10.32;1.42;;;;;;;0.73;100.00;97262.22;5041939;28;20397;-78
2021/01/13 08:44:48;;;;;;;16.70;2.35;;;;;;;0.69;100.00;97267.28;5039042;28;20041;-77
2021/01/13 08:47:16;;;;;;;13.25;1.77;;;;;;;0.62;100.00;97264.03;5032500;28;20136;-78
2021/01/13 08:49:45;;;;;;;11.68;1.90;;;;;;;0.55;100.00;97264.31;5013927;28;20045;-78
2021/01/13 08:52:13;;;;;;;15.93;2.10;;;;;;;0.59;100.00;97262.72;5034119;28;20042;-79
2021/01/13 08:54:45;;;;;;;22.77;2.20;;;;;;;0.69;100.00;97263.81;5030214;28;20513;-77
2021/01/13 08:57:13;;;;;;;12.35;2.10;;;;;;;0.69;100.00;97259.31;5031200;28;20065;-78
2021/01/13 08:59:42;;;;;;;14.15;1.75;;;;;;;0.73;100.00;97262.22;5031087;28;20516;-78
2021/01/13 09:02:12;;;;;;;12.88;1.90;;;;;;;0.81;100.00;97270.53;5030406;28;20041;-78
2021/01/13 09:04:59;;;;;;;13.43;1.92;;;;;;;0.97;100.00;97260.72;5031548;28;20125;-78
2021/01/13 09:07:26;;;;;;;12.55;1.63;;;;;;;1.16;100.00;97253.84;5030040;28;20053;-78
2021/01/13 09:10:03;;;;;;;20.73;2.08;;;;;;;1.32;100.00;97263.44;5030570;28;20061;-78
2021/01/13 09:12:44;;;;;;;18.67;1.75;;;;;;;1.18;100.00;97257.03;5012534;28;20044;-78
2021/01/13 09:15:15;;;;;;;12.63;2.03;;;;;;;1.04;100.00;97253.25;5030599;28;20463;-79
2021/01/13 09:17:47;;;;;;;20.52;1.77;;;;;;;1.05;100.00;97255.69;5029996;28;20049;-78
2021/01/13 09:20:32;;;;;;;16.77;2.58;;;;;;;1.06;100.00;97265.25;5030567;28;20516;-78
2021/01/13 09:23:05;;;;;;;17.92;1.90;;;;;;;1.01;100.00;97262.59;5012277;28;20038;-79
2021/01/13 09:25:45;;;;;;;14.45;1.77;;;;;;;1.02;100.00;97260.72;5030447;28;20038;-78
2021/01/13 09:28:16;;;;;;;14.00;2.10;;;;;;;1.07;100.00;97255.41;5033997;28;20064;-78
2021/01/13 09:30:43;;;;;;;8.57;1.77;;;;;;;1.08;100.00;97257.81;5016182;28;20079;-78
2021/01/13 09:33:17;;;;;;;16.02;2.08;;;;;;;1.03;100.00;97268.44;5031257;28;20033;-77
2021/01/13 09:35:46;;;;;;;12.35;2.38;;;;;;;1.07;100.00;97268.72;5015161;28;20104;-77
2021/01/13 09:38:14;;;;;;;18.52;2.40;;;;;;;1.00;100.00;97260.19;5013632;28;20045;-77
2021/01/13 09:40:53;;;;;;;9.73;2.28;;;;;;;0.93;100.00;97251.66;5030145;28;20045;-78
2021/01/13 09:43:37;;;;;;;20.38;2.53;;;;;;;0.75;100.00;97250.25;5019861;23;20050;-80
2021/01/13 09:46:32;;;;;;;17.05;2.70;;;;;;;0.69;100.00;97247.84;4996160;28;20106;-80
2021/01/13 09:49:10;;;;;;;14.07;2.00;;;;;;;0.70;100.00;97255.56;4988065;28;20058;-79
2021/01/13 09:51:42;;;;;;;;;;;;;;;0.83;100.00;97270.25;4961450;28;20047;-79
2021/01/13 09:54:26;;;;;;;18.85;2.63;;;;;;;0.80;100.00;97255.59;4976057;28;19933;-81
2021/01/13 09:56:56;;;;;;;15.52;2.70;;;;;;;0.83;100.00;97281.72;4961442;28;20046;-80
2021/01/13 10:02:58;;;;;;;;;;;;;;;0.97;100.00;97261.53;4952405;28;20046;-82
2021/01/13 10:05:41;;;;;;;12.10;2.40;;;;;;;0.92;100.00;97248.19;4961867;28;20575;-81
2021/01/13 10:08:57;;;;;;;14.00;2.95;;;;;;;0.92;100.00;97253.53;4967745;28;20066;-79
2021/01/13 10:12:01;;;;;;;9.98;2.10;;;;;;;0.99;100.00;97270.06;4957295;28;20038;-80
2021/01/13 10:14:39;;;;;;;14.63;2.83;;;;;;;0.75;100.00;97250.25;5014849;28;20064;-81
2021/01/13 10:17:26;;;;;;;16.33;2.60;;;;;;;0.89;100.00;97264.69;4996358;28;20046;-80
2021/01/13 10:20:29;;;;;;;18.80;2.78;;;;;;;0.91;100.00;97254.56;5017306;28;20079;-80
2021/01/13 10:23:11;;;;;;;18.83;3.25;;;;;;;0.98;100.00;97265.78;5010364;28;20386;-80
2021/01/13 10:25:37;;;;;;;14.20;2.70;;;;;;;0.93;100.00;97255.09;4999306;28;20046;-81
2021/01/13 10:28:10;;;;;;;8.70;2.70;;;;;;;0.92;100.00;97250.84;5002208;28;20052;-80
2021/01/13 10:30:39;;;;;;;21.45;3.22;;;;;;;0.90;100.00;97250.31;5003250;28;20069;-79
2021/01/13 10:33:05;;;;;;;13.90;2.88;;;;;;;0.93;100.00;97251.66;5002183;28;20046;-79
2021/01/13 10:35:39;;;;;;;12.05;3.03;;;;;;;0.93;100.00;97246.34;5000504;28;20050;-81
2021/01/13 10:38:06;;;;;;;11.45;2.72;;;;;;;0.95;100.00;97244.19;5000014;28;20080;-81
2021/01/13 10:40:33;;;;;;;14.23;3.20;;;;;;;0.89;100.00;97248.72;4980952;28;20118;-79
2021/01/13 10:42:59;;;;;;;14.68;2.75;;;;;;;0.89;100.00;97237.25;4981475;28;20078;-80
2021/01/13 10:45:27;;;;;;;11.98;3.03;;;;;;;0.87;100.00;97239.38;4967129;28;20073;-82
2021/01/13 10:47:59;;;;;;;14.07;3.00;;;;;;;0.89;100.00;97238.06;5000169;28;20046;-80
2021/01/13 10:50:28;;;;;;;15.85;3.08;;;;;;;0.87;100.00;97236.72;4998123;28;20046;-81
2021/01/13 10:52:57;;;;;;;12.75;3.38;;;;;;;0.84;100.00;97235.38;4982536;28;20034;-79
2021/01/13 10:55:26;;;;;;;19.77;3.13;;;;;;;0.82;100.00;97229.50;4965751;28;20054;-81
2021/01/13 10:57:54;;;;;;;10.18;2.65;;;;;;;0.81;100.00;97237.75;5000242;28;20736;-80
2021/01/13 11:00:27;;;;;;;12.65;2.80;;;;;;;0.80;100.00;97214.84;4967823;28;20050;-79
2021/01/13 11:02:57;;;;;;;10.27;2.65;;;;;;;0.82;100.00;97213.53;4982319;28;20058;-79
2021/01/13 11:05:24;;;;;;;12.43;3.42;;;;;;;0.92;100.00;97221.53;4966956;28;20046;-81
2021/01/13 11:07:54;;;;;;;16.50;3.25;;;;;;;0.94;100.00;97231.94;4984457;28;20050;-79
2021/01/13 11:10:22;;;;;;;11.40;2.97;;;;;;;0.88;100.00;97225.00;4966802;28;20050;-81
2021/01/13 11:13:00;;;;;;;13.05;3.05;;;;;;;0.83;100.00;97211.63;4965404;28;20046;-80
2021/01/13 11:15:28;;;;;;;15.43;3.03;;;;;;;0.87;100.00;97228.72;4965203;28;20046;-81
2021/01/13 11:17:56;;;;;;;14.57;3.22;;;;;;;0.92;100.00;97215.41;4965062;28;20486;-80
2021/01/13 11:20:30;;;;;;;11.35;2.78;;;;;;;0.88;100.00;97220.44;4986899;28;20046;-80
2021/01/13 11:23:01;;;;;;;30.48;4.13;;;;;;;0.93;100.00;97214.34;4968405;28;20045;-80
2021/01/13 11:26:03;;;;;;;16.42;3.88;;;;;;;0.94;100.00;97214.06;4985987;28;20088;-80
2021/01/13 11:28:27;;;;;;;11.77;3.10;;;;;;;1.04;100.00;97210.63;4998169;28;20133;-81
2021/01/13 11:30:55;;;;;;;18.55;3.60;;;;;;;1.02;100.00;97210.91;4986049;28;20056;-81
2021/01/13 11:33:23;;;;;;;12.73;3.60;;;;;;;1.10;100.00;97197.06;4961694;28;20106;-82
2021/01/13 11:35:50;;;;;;;15.13;3.05;;;;;;;1.04;100.00;97186.63;4965452;28;20137;-82
2021/01/13 11:38:32;;;;;;;20.10;3.30;;;;;;;1.13;100.00;97193.88;4962475;28;20046;-80
2021/01/13 11:41:39;;;;;;;10.27;3.00;;;;;;;1.18;100.00;97182.41;4963875;28;20046;-79
2021/01/13 11:44:37;;;;;;;14.48;3.45;;;;;;;1.29;100.00;97165.34;4980295;28;20049;-80
2021/01/13 11:47:46;;;;;;;11.25;3.13;;;;;;;1.37;100.00;97175.47;4967428;28;20051;-80
2021/01/13 11:50:15;;;;;;;15.52;3.35;;;;;;;1.45;100.00;97163.44;4960195;28;20043;-80
2021/01/13 11:53:02;;;;;;;16.35;3.50;;;;;;;1.31;100.00;97160.53;4979685;28;20630;-80
2021/01/13 11:55:29;;;;;;;16.35;3.47;;;;;;;1.30;100.00;97180.25;4984444;28;20070;-79
2021/01/13 11:57:56;;;;;;;18.42;3.35;;;;;;;1.17;100.00;97162.94;4956822;28;20118;-80
2021/01/13 12:00:27;;;;;;;12.18;3.17;;;;;;;1.09;100.00;97179.47;4990858;28;20073;-80